11PA weather

Public forecast

Using degrees Fahrenheit for public forecast. Weather courtesy of forecast.io.

Closest aviation weather report (METAR) to Worcester Heliport

Closest report is Wings Field, 4.0 nm (7.4 km) SE. Retrieved 2020/08/11 09:35 UTC (0 seconds ago):

KLOM 110935Z AUTO 00000KT 5SM BR SCT009 22/21 A2998 RMK AO2 T02160215

Closest aviation forecast (TAF) to Worcester Heliport

Closest forecast is Northeast Philadelphia Airport, 15.4 nm (28.5 km) ESE. Retrieved 2020/08/11 06:27 UTC (3 hours ago):

TAF KPNE 110524Z 1106/1206 21005KT P6SM SCT200 FM110700 VRB02KT 6SM BR FEW003 FM111300 19003KT P6SM BKN200 FM111800 19009KT P6SM FEW060